Daihatsumaru — JD2764 — position and weather

sailwx.info

Track history (hours):
 
Tides and Currents Weather Stations Pressure Air Temp Water Temp Dewpoint Dewpoint Depression Visibility Wind Speed Wind Dir Waves Ship Positions

Daihatsumaru

Last reported at 2014-Nov-27 04:33 UTC. Time now 2014-Nov-27 06:43 UTC.
Position N 34°37' E 134°57'.

Length 106 m; draft 4.5 m.

Type: Cargo ship. MMSI: 431000701.

Date/timePositionNaut miles runAvg speedWind from/ knotsBaromVisibWave heightAir tempDewpointWater temp
2014-Nov-27 04:33N 34°37' E 134°57'1515.4
2014-Nov-27 03:33N 34°37' E 135°16'7 7.4
2014-Nov-27 02:33N 34°41' E 135°23'0 0.0
2014-Nov-27 01:30N 34°41' E 135°23'0 0.0
2014-Nov-27 00:30N 34°41' E 135°23'0 0.0
2014-Nov-26 23:18N 34°41' E 135°23'0 0.0
2014-Nov-26 22:30N 34°41' E 135°23'3 2.4
2014-Nov-26 21:24N 34°40' E 135°21'0 0.0
2014-Nov-26 20:30N 34°40' E 135°21'0 0.0
2014-Nov-26 19:27N 34°40' E 135°21'1010.9
2014-Nov-26 18:33N 34°35' E 135°10'1615.3
2014-Nov-26 17:33N 34°34' E 134°52'4 0.1
2014-Nov-25 04:14N 34°36' E 134°55'1014.5
2014-Nov-25 03:33N 34°36' E 135°07'1414.0
2014-Nov-25 02:33N 34°41' E 135°23'0 0.0
2014-Nov-25 01:29N 34°41' E 135°23'0 0.0
2014-Nov-25 00:29N 34°41' E 135°23'0 0.0
2014-Nov-24 23:29N 34°41' E 135°23'2 2.3
2014-Nov-24 22:31N 34°40' E 135°21'0 0.4
2014-Nov-24 21:32N 34°40' E 135°21'0 0.0
2014-Nov-24 20:26N 34°40' E 135°21'0 0.0
2014-Nov-24 19:32N 34°40' E 135°21'9 9.6
2014-Nov-24 18:33N 34°35' E 135°11'1616.1
2014-Nov-24 17:32N 34°34' E 134°51'  
2014-Nov-22 05:15N 34°35' E 134°52'811.7
2014-Nov-22 04:34N 34°37' E 135°02'1313.4
2014-Nov-22 03:33N 34°38' E 135°18'5 5.0
2014-Nov-22 02:31N 34°41' E 135°23'0 0.0
2014-Nov-22 01:12N 34°41' E 135°23'0 0.0
2014-Nov-22 00:27N 34°41' E 135°23'0 0.0
2014-Nov-21 23:27N 34°41' E 135°23'2 2.1
2014-Nov-21 22:33N 34°40' E 135°22'1 0.7
2014-Nov-21 21:30N 34°40' E 135°21'0 0.0
2014-Nov-21 20:24N 34°40' E 135°21'0 0.1
2014-Nov-21 19:30N 34°40' E 135°21'2 2.4
2014-Nov-21 18:33N 34°39' E 135°19'1413.6
2014-Nov-21 17:33N 34°36' E 135°02'5 0.1
2014-Nov-20 04:33N 34°37' E 134°57'1312.8
2014-Nov-20 03:33N 34°36' E 135°12'1110.7
2014-Nov-20 02:33N 34°41' E 135°23'0 0.0
2014-Nov-20 01:26N 34°41' E 135°23'0 0.0
2014-Nov-20 00:26N 34°41' E 135°23'0 0.0
2014-Nov-19 23:32N 34°41' E 135°23'0 0.0
2014-Nov-19 22:29N 34°41' E 135°23'3 2.8
2014-Nov-19 21:28N 34°40' E 135°20'0 0.0
2014-Nov-19 20:28N 34°40' E 135°20'0 0.0
2014-Nov-19 19:28N 34°40' E 135°20'9 9.4
2014-Nov-19 18:33N 34°35' E 135°12'1514.6
2014-Nov-19 17:33N 34°35' E 134°54'1 0.0
2014-Nov-18 04:33N 34°36' E 134°55'1413.9
2014-Nov-18 03:33N 34°36' E 135°12'1110.7
2014-Nov-18 02:33N 34°41' E 135°23'0 0.0
2014-Nov-18 01:29N 34°41' E 135°23'0 0.0
2014-Nov-18 00:17N 34°41' E 135°23'0 0.0
2014-Nov-17 23:29N 34°41' E 135°23'3 3.1
2014-Nov-17 22:33N 34°40' E 135°20'0 0.2
2014-Nov-17 21:28N 34°40' E 135°20'0 0.0
2014-Nov-17 20:22N 34°40' E 135°20'0 0.0
2014-Nov-17 19:28N 34°40' E 135°20'5 4.9
2014-Nov-17 18:33N 34°36' E 135°17'1414.0
2014-Nov-17 17:33N 34°37' E 134°60'  
Track history (hours):
 
Tides and Currents Weather Stations Pressure Air Temp Water Temp Dewpoint Dewpoint Depression Visibility Wind Speed Wind Dir Waves Ship Positions

Daihatsumaru

Last reported at 2014-Nov-27 04:33 UTC. Time now 2014-Nov-27 06:43 UTC.
Position N 34°37' E 134°57'.

Length 106 m; draft 4.5 m.

Type: Cargo ship. MMSI: 431000701.

Date/timePositionNaut miles runAvg speedWind from/ knotsBaromVisibWave heightAir tempDewpointWater temp
2014-Nov-27 04:33N 34°37' E 134°57'1515.4
2014-Nov-27 03:33N 34°37' E 135°16'7 7.4
2014-Nov-27 02:33N 34°41' E 135°23'0 0.0
2014-Nov-27 01:30N 34°41' E 135°23'0 0.0
2014-Nov-27 00:30N 34°41' E 135°23'0 0.0
2014-Nov-26 23:18N 34°41' E 135°23'0 0.0
2014-Nov-26 22:30N 34°41' E 135°23'3 2.4
2014-Nov-26 21:24N 34°40' E 135°21'0 0.0
2014-Nov-26 20:30N 34°40' E 135°21'0 0.0
2014-Nov-26 19:27N 34°40' E 135°21'1010.9
2014-Nov-26 18:33N 34°35' E 135°10'1615.3
2014-Nov-26 17:33N 34°34' E 134°52'4 0.1
2014-Nov-25 04:14N 34°36' E 134°55'1014.5
2014-Nov-25 03:33N 34°36' E 135°07'1414.0
2014-Nov-25 02:33N 34°41' E 135°23'0 0.0
2014-Nov-25 01:29N 34°41' E 135°23'0 0.0
2014-Nov-25 00:29N 34°41' E 135°23'0 0.0
2014-Nov-24 23:29N 34°41' E 135°23'2 2.3
2014-Nov-24 22:31N 34°40' E 135°21'0 0.4
2014-Nov-24 21:32N 34°40' E 135°21'0 0.0
2014-Nov-24 20:26N 34°40' E 135°21'0 0.0
2014-Nov-24 19:32N 34°40' E 135°21'9 9.6
2014-Nov-24 18:33N 34°35' E 135°11'1616.1
2014-Nov-24 17:32N 34°34' E 134°51'  
2014-Nov-22 05:15N 34°35' E 134°52'811.7
2014-Nov-22 04:34N 34°37' E 135°02'1313.4
2014-Nov-22 03:33N 34°38' E 135°18'5 5.0
2014-Nov-22 02:31N 34°41' E 135°23'0 0.0
2014-Nov-22 01:12N 34°41' E 135°23'0 0.0
2014-Nov-22 00:27N 34°41' E 135°23'0 0.0
2014-Nov-21 23:27N 34°41' E 135°23'2 2.1
2014-Nov-21 22:33N 34°40' E 135°22'1 0.7
2014-Nov-21 21:30N 34°40' E 135°21'0 0.0
2014-Nov-21 20:24N 34°40' E 135°21'0 0.1
2014-Nov-21 19:30N 34°40' E 135°21'2 2.4
2014-Nov-21 18:33N 34°39' E 135°19'1413.6
2014-Nov-21 17:33N 34°36' E 135°02'5 0.1
2014-Nov-20 04:33N 34°37' E 134°57'1312.8
2014-Nov-20 03:33N 34°36' E 135°12'1110.7
2014-Nov-20 02:33N 34°41' E 135°23'0 0.0
2014-Nov-20 01:26N 34°41' E 135°23'0 0.0
2014-Nov-20 00:26N 34°41' E 135°23'0 0.0
2014-Nov-19 23:32N 34°41' E 135°23'0 0.0
2014-Nov-19 22:29N 34°41' E 135°23'3 2.8
2014-Nov-19 21:28N 34°40' E 135°20'0 0.0
2014-Nov-19 20:28N 34°40' E 135°20'0 0.0
2014-Nov-19 19:28N 34°40' E 135°20'9 9.4
2014-Nov-19 18:33N 34°35' E 135°12'1514.6
2014-Nov-19 17:33N 34°35' E 134°54'1 0.0
2014-Nov-18 04:33N 34°36' E 134°55'1413.9
2014-Nov-18 03:33N 34°36' E 135°12'1110.7
2014-Nov-18 02:33N 34°41' E 135°23'0 0.0
2014-Nov-18 01:29N 34°41' E 135°23'0 0.0
2014-Nov-18 00:17N 34°41' E 135°23'0 0.0
2014-Nov-17 23:29N 34°41' E 135°23'3 3.1
2014-Nov-17 22:33N 34°40' E 135°20'0 0.2
2014-Nov-17 21:28N 34°40' E 135°20'0 0.0
2014-Nov-17 20:22N 34°40' E 135°20'0 0.0
2014-Nov-17 19:28N 34°40' E 135°20'5 4.9
2014-Nov-17 18:33N 34°36' E 135°17'1414.0
2014-Nov-17 17:33N 34°37' E 134°60'  

Dump ship's entire track history